Airport View

Enter AWOS ICAO identifier for current METAR.

ex. KFNL

PADE 261053Z AUTO VRB03KT 10SM CLR 14/13 A2991 RMK AO2 SLP128 T01440128 TSNO

26 Jun 2019 11:49

Frequency: 135.5

Phone: 907-363-2102

Other Area AWOS: PABL - PAOT - PFNO - PASK

TAF PAOT 260539Z 2606/2706 30010KT P6SM SKC FM261000 09011KT P6SM SCT050 SCT100 BKN200